Time;durP1;ratioP1;P1;durP2;ratioP2;P2;SDS_P1;SDS_P2;PMS_P1;PMS_P2;Temp;Humidity;BMP_temperature;BMP_pressure;BME280_temperature;BME280_humidity;BME280_pressure;Samples;Min_cycle;Max_cycle;Signal;HPM_P1;HPM_P2
2022/12/02 00:00:17;;;;;;;34.67;20.08;;;3.40;99.90;;;;;;4962810;28;20065;-60
2022/12/02 00:02:43;;;;;;;32.97;18.65;;;3.10;99.90;;;;;;4960902;28;20038;-60
2022/12/02 00:05:14;;;;;;;33.65;20.48;;;3.80;99.90;;;;;;4957344;28;20537;-59
2022/12/02 00:07:41;;;;;;;31.70;19.08;;;3.00;99.90;;;;;;4958397;28;20402;-60
2022/12/02 00:10:31;;;;;;;31.73;19.30;;;2.90;99.90;;;;;;4962894;28;20051;-60
2022/12/02 00:13:26;;;;;;;33.67;19.33;;;3.00;99.90;;;;;;4963433;28;20081;-60
2022/12/02 00:16:01;;;;;;;37.15;20.90;;;2.90;99.90;;;;;;4961850;28;20061;-60
2022/12/02 00:18:28;;;;;;;38.67;22.95;;;3.10;99.90;;;;;;4962348;28;20094;-59
2022/12/02 00:20:54;;;;;;;43.33;23.27;;;3.00;99.90;;;;;;4962817;28;20505;-60
2022/12/02 00:23:21;;;;;;;44.38;24.25;;;2.90;99.90;;;;;;4961083;28;20423;-60
2022/12/02 00:25:52;;;;;;;41.28;25.23;;;3.70;99.90;;;;;;4963476;28;20050;-60
2022/12/02 00:28:17;;;;;;;43.00;24.92;;;2.90;99.90;;;;;;4963122;28;20129;-59
2022/12/02 00:30:43;;;;;;;45.90;26.00;;;3.10;99.90;;;;;;4962968;28;20119;-59
2022/12/02 00:33:10;;;;;;;44.08;24.38;;;3.10;99.90;;;;;;4963074;28;20047;-60
2022/12/02 00:35:36;;;;;;;45.15;25.77;;;3.60;99.90;;;;;;4962061;28;20057;-59
2022/12/02 00:38:02;;;;;;;44.00;24.80;;;3.00;99.90;;;;;;4961854;28;20474;-60
2022/12/02 00:40:27;;;;;;;47.90;24.58;;;3.10;99.90;;;;;;4961022;28;20055;-60
2022/12/02 00:42:53;;;;;;;41.15;23.75;;;3.60;99.90;;;;;;4966222;28;20035;-60
2022/12/02 00:48:03;;;;;;;46.38;25.10;;;3.00;99.90;;;;;;4966302;28;20132;-61
2022/12/02 00:50:29;;;;;;;44.55;23.55;;;3.00;99.90;;;;;;4967079;28;20043;-60
2022/12/02 00:52:55;;;;;;;46.08;24.90;;;3.80;99.90;;;;;;4966448;28;20143;-60
2022/12/02 00:55:21;;;;;;;45.55;23.35;;;2.80;99.90;;;;;;4966395;28;20039;-60
2022/12/02 00:57:46;;;;;;;42.58;24.75;;;2.80;99.90;;;;;;4966332;28;20195;-60
2022/12/02 01:00:12;;;;;;;45.22;24.17;;;2.80;99.90;;;;;;4966332;28;20049;-59
2022/12/02 01:02:38;;;;;;;44.53;23.90;;;3.10;99.90;;;;;;4966382;28;20038;-60
2022/12/02 01:05:04;;;;;;;49.25;25.65;;;2.90;99.90;;;;;;4958772;28;20055;-60
2022/12/02 01:07:30;;;;;;;45.67;23.92;;;3.00;99.90;;;;;;4950966;28;20417;-60
2022/12/02 01:09:55;;;;;;;43.80;24.00;;;2.80;99.90;;;;;;4947888;28;20043;-60
2022/12/02 01:12:21;;;;;;;49.00;26.50;;;3.00;99.90;;;;;;4946855;28;20544;-59
2022/12/02 01:14:47;;;;;;;52.95;26.23;;;3.10;99.90;;;;;;4946682;28;20054;-59
2022/12/02 01:17:12;;;;;;;48.13;26.52;;;2.80;99.90;;;;;;4947406;28;20498;-60
2022/12/02 01:19:39;;;;;;;46.80;26.55;;;3.10;99.90;;;;;;4946762;28;20055;-59
2022/12/02 01:22:04;;;;;;;44.95;24.80;;;2.80;99.90;;;;;;4945842;28;20055;-59
2022/12/02 01:24:30;;;;;;;47.05;27.05;;;3.20;99.90;;;;;;4946381;28;20391;-61
2022/12/02 01:26:56;;;;;;;47.05;25.75;;;2.90;99.90;;;;;;4947765;28;20051;-60
2022/12/02 01:29:21;;;;;;;47.22;26.17;;;3.60;99.90;;;;;;4946591;28;20040;-59
2022/12/02 01:31:47;;;;;;;44.28;24.35;;;3.20;99.90;;;;;;4946761;28;20135;-59
2022/12/02 01:34:12;;;;;;;42.10;23.40;;;2.70;99.90;;;;;;4945876;28;20054;-58
2022/12/02 01:36:38;;;;;;;42.03;23.23;;;2.80;99.90;;;;;;4945659;28;20118;-59
2022/12/02 01:39:04;;;;;;;43.63;23.25;;;2.70;99.90;;;;;;4946073;28;20118;-61
2022/12/02 01:41:30;;;;;;;45.05;24.50;;;2.70;99.90;;;;;;4946129;28;20043;-61
2022/12/02 01:43:55;;;;;;;43.13;25.25;;;2.70;99.90;;;;;;4946444;28;20083;-60
2022/12/02 01:46:21;;;;;;;42.85;24.77;;;2.70;99.90;;;;;;4947218;28;20051;-60
2022/12/02 01:48:48;;;;;;;42.35;24.88;;;2.60;99.90;;;;;;4947174;28;20039;-60
2022/12/02 01:51:14;;;;;;;43.53;25.33;;;2.60;99.90;;;;;;4945760;28;20035;-61
2022/12/02 01:53:40;;;;;;;40.92;24.30;;;2.70;99.90;;;;;;4945527;28;20870;-59
2022/12/02 01:56:09;;;;;;;48.60;26.27;;;2.60;99.90;;;;;;4946386;28;20047;-60
2022/12/02 01:58:35;;;;;;;43.38;26.30;;;2.90;99.90;;;;;;4946243;28;20127;-60
2022/12/02 02:01:25;;;;;;;43.65;25.45;;;2.70;99.90;;;;;;4945581;28;20047;-60
2022/12/02 02:03:51;;;;;;;45.25;25.85;;;2.70;99.90;;;;;;4946867;28;20043;-60
2022/12/02 02:06:16;;;;;;;44.05;25.20;;;3.30;99.90;;;;;;4953968;28;20054;-60
2022/12/02 02:08:42;;;;;;;43.30;24.77;;;2.60;99.90;;;;;;4945433;28;20118;-60
2022/12/02 02:11:08;;;;;;;43.83;24.48;;;2.70;99.90;;;;;;4945824;28;20043;-58
2022/12/02 02:13:33;;;;;;;44.70;24.55;;;2.60;99.90;;;;;;4946258;28;20663;-59
2022/12/02 02:15:59;;;;;;;42.08;24.33;;;2.70;99.90;;;;;;4946274;28;20493;-60
2022/12/02 02:18:24;;;;;;;43.65;24.48;;;2.60;99.90;;;;;;4943557;29;20134;-59
2022/12/02 02:20:52;;;;;;;41.55;24.58;;;2.40;99.90;;;;;;4945759;28;20581;-61
2022/12/02 02:23:26;;;;;;;42.78;23.77;;;2.70;99.90;;;;;;4945048;28;20047;-60
2022/12/02 02:25:55;;;;;;;38.30;21.25;;;2.40;99.90;;;;;;4962611;28;20039;-60
2022/12/02 02:28:23;;;;;;;39.33;22.58;;;2.20;99.90;;;;;;4965183;28;20039;-59
2022/12/02 02:30:51;;;;;;;35.53;20.90;;;2.40;99.90;;;;;;4964925;28;20556;-60
2022/12/02 02:33:17;;;;;;;38.85;21.33;;;2.20;99.90;;;;;;4964095;28;20133;-60
2022/12/02 02:35:44;;;;;;;34.63;20.52;;;2.10;99.90;;;;;;4963581;28;20046;-60
2022/12/02 02:38:14;;;;;;;37.85;22.10;;;2.20;99.90;;;;;;4964286;28;20031;-60
2022/12/02 02:40:41;;;;;;;34.88;19.63;;;2.10;99.90;;;;;;4964781;28;20513;-59
2022/12/02 02:43:07;;;;;;;37.30;21.25;;;2.50;99.90;;;;;;4962455;28;20094;-60
2022/12/02 02:45:35;;;;;;;38.10;21.30;;;2.40;99.90;;;;;;4963505;28;20466;-61
2022/12/02 02:48:03;;;;;;;37.60;21.27;;;2.20;99.90;;;;;;4965122;28;20736;-60
2022/12/02 02:50:29;;;;;;;37.63;21.52;;;2.10;99.90;;;;;;4964177;28;20035;-59
2022/12/02 02:52:56;;;;;;;36.55;20.77;;;2.20;99.90;;;;;;4964215;28;20125;-59
2022/12/02 02:55:24;;;;;;;37.58;21.15;;;2.20;99.90;;;;;;4964554;28;20391;-60
2022/12/02 02:57:50;;;;;;;38.00;22.15;;;3.10;99.90;;;;;;4964754;28;20039;-60
2022/12/02 03:00:18;;;;;;;37.97;22.48;;;2.80;99.90;;;;;;4963531;28;20047;-59
2022/12/02 03:02:47;;;;;;;39.22;22.20;;;2.10;99.90;;;;;;4963403;28;20038;-59
2022/12/02 03:05:13;;;;;;;41.85;23.13;;;2.50;99.90;;;;;;4956851;28;20050;-60
2022/12/02 03:07:39;;;;;;;40.08;23.35;;;2.20;99.90;;;;;;4946975;28;20130;-59
2022/12/02 03:10:05;;;;;;;41.42;24.38;;;2.10;99.90;;;;;;4943758;29;20730;-60
2022/12/02 03:12:32;;;;;;;43.00;23.92;;;2.00;99.90;;;;;;4945164;28;20238;-60
2022/12/02 03:14:58;;;;;;;42.03;22.95;;;2.10;99.90;;;;;;4944533;28;20087;-59
2022/12/02 03:17:24;;;;;;;44.30;23.27;;;2.00;99.90;;;;;;4943887;28;20459;-60
2022/12/02 03:19:50;;;;;;;40.65;23.10;;;2.20;99.90;;;;;;4944636;28;20106;-60
2022/12/02 03:22:16;;;;;;;45.38;24.20;;;2.10;99.90;;;;;;4944386;28;20418;-59
2022/12/02 03:24:41;;;;;;;44.65;24.23;;;2.00;99.90;;;;;;4944789;28;20079;-60
2022/12/02 03:27:09;;;;;;;46.45;23.25;;;2.20;99.90;;;;;;4943214;28;20546;-60
2022/12/02 03:29:35;;;;;;;45.63;24.55;;;2.00;99.90;;;;;;4944888;28;20292;-59
2022/12/02 03:32:01;;;;;;;44.58;23.77;;;2.10;99.90;;;;;;4945009;28;20126;-59
2022/12/02 03:34:28;;;;;;;47.20;24.85;;;2.00;99.90;;;;;;4943673;28;20056;-60
2022/12/02 03:36:54;;;;;;;45.50;25.08;;;2.00;99.90;;;;;;4944174;29;20043;-60
2022/12/02 03:39:20;;;;;;;44.50;24.50;;;2.00;99.90;;;;;;4944545;28;20082;-59
2022/12/02 03:41:46;;;;;;;41.53;23.35;;;1.90;99.90;;;;;;4944247;28;20093;-58
2022/12/02 03:44:14;;;;;;;46.83;24.95;;;1.90;99.90;;;;;;4943623;28;20079;-59
2022/12/02 03:46:41;;;;;;;49.85;27.15;;;1.80;99.90;;;;;;4943001;28;20062;-60
2022/12/02 03:49:07;;;;;;;49.08;26.30;;;1.90;99.90;;;;;;4944705;28;20040;-59
2022/12/02 03:51:33;;;;;;;51.35;26.70;;;2.70;99.90;;;;;;4943506;28;20454;-61
2022/12/02 03:54:00;;;;;;;47.78;25.70;;;2.00;99.90;;;;;;4942817;29;20075;-58
2022/12/02 03:56:26;;;;;;;47.72;26.10;;;1.80;99.90;;;;;;4944311;28;20390;-60
2022/12/02 03:58:52;;;;;;;50.47;26.88;;;2.10;99.90;;;;;;4944159;28;20047;-60
2022/12/02 04:01:20;;;;;;;49.42;26.60;;;2.10;99.90;;;;;;4943273;28;20047;-60
2022/12/02 04:03:46;;;;;;;51.70;25.88;;;2.00;99.90;;;;;;4943309;28;20422;-59
2022/12/02 04:06:12;;;;;;;50.33;27.13;;;4.00;99.90;;;;;;4953974;28;20612;-60
2022/12/02 04:08:38;;;;;;;48.35;25.95;;;2.20;99.90;;;;;;4942907;29;20249;-59
2022/12/02 04:11:04;;;;;;;46.45;26.15;;;2.00;99.90;;;;;;4943383;28;20047;-60
2022/12/02 04:13:30;;;;;;;50.00;27.20;;;1.90;99.90;;;;;;4944392;28;20605;-60
2022/12/02 04:15:56;;;;;;;48.90;27.13;;;2.00;99.90;;;;;;4942717;28;20043;-60
2022/12/02 04:18:22;;;;;;;53.08;27.67;;;2.00;99.90;;;;;;4943676;28;20087;-60
2022/12/02 04:20:48;;;;;;;52.95;28.52;;;1.90;99.90;;;;;;4943210;28;20091;-59
2022/12/02 04:23:13;;;;;;;50.13;27.65;;;1.70;99.90;;;;;;4958103;28;20117;-60
2022/12/02 04:25:39;;;;;;;52.40;28.90;;;2.00;99.90;;;;;;4944380;28;20087;-59
2022/12/02 04:28:05;;;;;;;50.90;27.33;;;2.10;99.90;;;;;;4944114;28;20122;-59
2022/12/02 04:30:30;;;;;;;51.80;27.70;;;1.80;99.90;;;;;;4943640;28;20058;-60
2022/12/02 04:32:56;;;;;;;49.88;27.35;;;2.20;99.90;;;;;;4943042;28;20185;-60
2022/12/02 04:35:22;;;;;;;54.22;28.23;;;1.90;99.90;;;;;;4944127;28;20121;-59
2022/12/02 04:37:50;;;;;;;56.92;28.67;;;2.10;99.90;;;;;;4941784;29;20284;-60
2022/12/02 04:40:16;;;;;;;53.22;29.15;;;1.90;99.90;;;;;;4943233;28;20055;-60
2022/12/02 04:42:42;;;;;;;54.25;27.98;;;2.10;99.90;;;;;;4942688;28;20379;-60
2022/12/02 04:45:08;;;;;;;54.05;27.60;;;1.90;99.90;;;;;;4943609;28;20050;-59
2022/12/02 04:47:34;;;;;;;56.00;29.27;;;2.10;99.90;;;;;;4942851;28;20047;-60
2022/12/02 04:49:59;;;;;;;55.22;28.90;;;2.10;99.90;;;;;;4944335;28;20530;-59
2022/12/02 04:52:25;;;;;;;53.67;28.08;;;2.50;99.90;;;;;;4942882;28;20054;-58
2022/12/02 04:54:51;;;;;;;53.63;28.65;;;2.70;99.90;;;;;;4943883;28;20043;-59
2022/12/02 04:57:16;;;;;;;52.38;26.63;;;2.60;99.90;;;;;;4941931;28;20043;-59
2022/12/02 04:59:42;;;;;;;52.95;28.67;;;2.20;99.90;;;;;;4943219;28;20046;-60
2022/12/02 05:02:07;;;;;;;55.15;28.25;;;2.10;99.90;;;;;;4943056;28;20082;-60
2022/12/02 05:04:33;;;;;;;53.13;29.02;;;2.30;99.90;;;;;;4944501;28;20556;-61
2022/12/02 05:06:59;;;;;;;50.00;26.95;;;2.30;99.90;;;;;;4950565;28;20031;-60
2022/12/02 05:09:24;;;;;;;54.75;27.60;;;2.30;99.90;;;;;;4943524;28;20491;-60
2022/12/02 05:11:50;;;;;;;56.25;28.83;;;2.40;99.90;;;;;;4943201;28;20102;-60
2022/12/02 05:14:15;;;;;;;57.83;29.52;;;2.20;99.90;;;;;;4942750;28;20102;-58
2022/12/02 05:16:41;;;;;;;54.03;28.45;;;2.30;99.90;;;;;;4942100;28;20043;-60
2022/12/02 05:19:07;;;;;;;54.40;28.25;;;2.20;99.90;;;;;;4942399;28;20078;-60
2022/12/02 05:21:32;;;;;;;57.10;28.58;;;2.20;99.90;;;;;;4942711;28;20063;-61
2022/12/02 05:23:58;;;;;;;54.95;28.25;;;2.70;99.90;;;;;;4943868;28;20503;-59
2022/12/02 05:26:23;;;;;;;54.88;29.15;;;2.40;99.90;;;;;;4942065;28;20047;-60
2022/12/02 05:28:49;;;;;;;60.25;29.58;;;2.30;99.90;;;;;;4944866;28;20102;-59
2022/12/02 05:31:15;;;;;;;56.78;26.52;;;2.30;99.90;;;;;;4946698;28;20506;-60
2022/12/02 05:33:40;;;;;;;55.90;28.90;;;3.70;99.90;;;;;;4946962;28;20212;-60
2022/12/02 05:36:07;;;;;;;59.28;29.05;;;3.00;99.90;;;;;;4945371;28;20046;-60
2022/12/02 05:38:33;;;;;;;55.47;28.42;;;2.30;99.90;;;;;;4947325;28;20058;-61
2022/12/02 05:40:58;;;;;;;60.95;28.77;;;2.40;99.90;;;;;;4946966;28;20051;-59
2022/12/02 05:43:25;;;;;;;60.97;30.63;;;2.30;99.90;;;;;;4945463;28;20216;-60
2022/12/02 05:45:57;;;;;;;59.22;27.98;;;2.50;99.90;;;;;;4946687;28;20418;-59
2022/12/02 05:48:24;;;;;;;61.22;29.17;;;2.20;99.90;;;;;;4946427;28;20104;-60
2022/12/02 05:50:52;;;;;;;61.63;29.05;;;2.30;99.90;;;;;;4945847;28;20127;-60
2022/12/02 05:53:22;;;;;;;59.50;29.40;;;2.40;99.90;;;;;;4945841;28;20082;-60
2022/12/02 05:55:49;;;;;;;62.35;29.65;;;2.50;99.90;;;;;;4946783;28;20912;-60
2022/12/02 05:58:16;;;;;;;59.90;28.45;;;2.30;99.90;;;;;;4946285;28;20043;-60
2022/12/02 06:00:42;;;;;;;54.00;27.00;;;2.30;99.90;;;;;;4945698;28;20462;-60
2022/12/02 06:03:16;;;;;;;54.75;26.30;;;4.10;99.90;;;;;;4946125;28;20039;-60
2022/12/02 06:05:42;;;;;;;54.77;28.03;;;2.50;99.90;;;;;;4956180;28;20047;-60
2022/12/02 06:08:31;;;;;;;55.95;27.55;;;2.50;99.90;;;;;;4945152;28;20402;-60
2022/12/02 06:11:00;;;;;;;55.70;27.30;;;2.50;99.90;;;;;;4946456;28;20051;-60
2022/12/02 06:13:28;;;;;;;55.13;25.85;;;2.40;99.90;;;;;;4944724;29;20055;-59
2022/12/02 06:15:54;;;;;;;56.17;27.88;;;3.10;99.90;;;;;;4960402;28;20043;-60
2022/12/02 06:18:25;;;;;;;58.42;26.42;;;3.00;99.90;;;;;;4945939;28;20035;-59
2022/12/02 06:20:56;;;;;;;53.38;26.27;;;2.30;99.90;;;;;;4945212;28;20666;-60
2022/12/02 06:23:25;;;;;;;54.95;26.15;;;2.20;99.90;;;;;;4945332;28;20094;-59
2022/12/02 06:25:52;;;;;;;52.60;25.17;;;2.20;99.90;;;;;;4945639;28;20058;-60
2022/12/02 06:28:23;;;;;;;54.55;26.10;;;2.50;99.90;;;;;;4945666;28;20090;-60
2022/12/02 06:30:50;;;;;;;60.38;27.55;;;2.30;99.90;;;;;;4945004;28;20394;-59
2022/12/02 06:33:27;;;;;;;51.42;25.23;;;2.20;99.90;;;;;;4945491;28;20039;-60
2022/12/02 06:35:54;;;;;;;57.00;25.63;;;2.20;99.90;;;;;;4944953;28;20050;-60
2022/12/02 06:38:33;;;;;;;54.58;26.08;;;2.20;99.90;;;;;;4944882;28;20457;-59
2022/12/02 06:41:13;;;;;;;52.03;25.23;;;2.20;99.90;;;;;;4945967;28;20047;-59
2022/12/02 06:43:39;;;;;;;53.00;27.08;;;2.40;99.90;;;;;;4945178;28;20073;-60
2022/12/02 06:46:18;;;;;;;57.15;25.75;;;2.40;99.90;;;;;;4945257;28;20051;-61
2022/12/02 06:48:43;;;;;;;56.13;26.70;;;2.60;99.90;;;;;;4944226;29;20653;-59
2022/12/02 06:51:17;;;;;;;53.83;24.92;;;2.20;99.90;;;;;;4943841;28;20093;-60
2022/12/02 06:53:45;;;;;;;56.67;27.17;;;2.20;99.90;;;;;;4945740;28;20074;-59
2022/12/02 06:56:24;;;;;;;57.22;26.45;;;2.20;99.90;;;;;;4944967;28;20048;-60
2022/12/02 06:58:53;;;;;;;52.70;26.08;;;2.30;99.90;;;;;;4943453;29;20063;-60
2022/12/02 07:01:22;;;;;;;57.08;26.25;;;2.20;99.90;;;;;;4945235;28;20058;-60
2022/12/02 07:04:01;;;;;;;55.83;25.92;;;2.40;99.90;;;;;;4945494;28;20090;-59
2022/12/02 07:06:29;;;;;;;51.97;23.65;;;2.30;99.90;;;;;;4952957;28;20078;-60
2022/12/02 07:08:57;;;;;;;60.70;26.35;;;2.10;99.90;;;;;;4945136;28;20067;-60
2022/12/02 07:11:49;;;;;;;52.25;23.48;;;2.80;99.90;;;;;;4945148;28;20094;-59
2022/12/02 07:14:37;;;;;;;61.15;25.77;;;2.20;99.90;;;;;;4945149;28;20055;-60
2022/12/02 07:17:22;;;;;;;55.78;24.85;;;2.10;99.90;;;;;;4933872;28;20055;-61
2022/12/02 07:19:55;;;;;;;56.65;25.45;;;2.20;99.90;;;;;;4945635;28;20485;-60
2022/12/02 07:22:24;;;;;;;55.63;24.50;;;2.20;99.90;;;;;;4943651;28;20063;-60
2022/12/02 07:25:16;;;;;;;50.80;24.05;;;2.30;99.90;;;;;;4945351;28;20401;-60
2022/12/02 07:27:45;;;;;;;55.25;26.33;;;2.30;99.90;;;;;;4935643;28;20051;-60
2022/12/02 07:30:26;;;;;;;56.00;26.52;;;2.20;99.90;;;;;;4944816;28;20046;-60
2022/12/02 07:32:52;;;;;;;57.47;27.23;;;2.30;99.90;;;;;;4943524;29;20059;-59
2022/12/02 07:35:18;;;;;;;63.33;28.35;;;2.10;99.90;;;;;;4943128;28;20102;-61
2022/12/02 07:37:44;;;;;;;58.35;28.13;;;2.30;99.90;;;;;;4943380;29;20051;-59
2022/12/02 07:40:11;;;;;;;63.97;27.55;;;2.20;99.90;;;;;;4944438;28;20490;-59
2022/12/02 07:42:37;;;;;;;64.70;27.63;;;2.10;99.90;;;;;;4950021;28;20039;-60
2022/12/02 07:45:03;;;;;;;58.85;27.30;;;2.10;99.90;;;;;;4949817;28;20038;-61
2022/12/02 07:47:31;;;;;;;54.88;25.98;;;2.10;99.90;;;;;;4949219;28;20043;-59
2022/12/02 07:49:57;;;;;;;56.05;25.08;;;1.90;99.90;;;;;;4950201;28;20545;-59
2022/12/02 07:52:23;;;;;;;57.83;25.27;;;2.20;99.90;;;;;;4948687;28;20260;-59
2022/12/02 07:54:49;;;;;;;56.60;25.33;;;1.90;99.90;;;;;;4950596;28;20379;-60
2022/12/02 07:57:15;;;;;;;51.85;25.25;;;2.50;99.90;;;;;;4951022;28;20544;-59
2022/12/02 07:59:40;;;;;;;59.70;26.02;;;2.60;99.90;;;;;;4950116;28;20040;-60
2022/12/02 08:02:06;;;;;;;54.42;22.58;;;1.90;99.90;;;;;;4948163;28;20497;-60
2022/12/02 08:04:31;;;;;;;53.15;23.73;;;1.80;99.90;;;;;;4949663;28;20038;-59
2022/12/02 08:06:57;;;;;;;53.90;25.95;;;2.00;99.90;;;;;;4948374;28;20051;-60
2022/12/02 08:09:23;;;;;;;52.45;24.52;;;2.00;99.90;;;;;;4947242;28;20058;-60
2022/12/02 08:11:49;;;;;;;52.45;24.73;;;1.90;99.90;;;;;;4949244;28;20049;-60
2022/12/02 08:14:14;;;;;;;52.40;24.38;;;2.00;99.90;;;;;;4950298;28;20050;-61
2022/12/02 08:16:40;;;;;;;50.33;22.52;;;2.00;99.90;;;;;;4950648;28;20125;-60
2022/12/02 08:19:06;;;;;;;51.85;24.50;;;2.00;99.90;;;;;;4950104;28;20243;-60
2022/12/02 08:21:32;;;;;;;48.38;21.13;;;1.90;99.90;;;;;;4947571;28;20532;-59
2022/12/02 08:23:58;;;;;;;54.80;22.50;;;2.00;99.90;;;;;;4950654;28;20054;-59
2022/12/02 08:26:24;;;;;;;53.80;24.00;;;1.80;99.90;;;;;;4949893;28;20066;-60
2022/12/02 08:28:49;;;;;;;55.05;23.50;;;1.70;99.90;;;;;;4949934;28;20043;-60
2022/12/02 08:31:15;;;;;;;52.40;22.48;;;3.90;99.90;;;;;;4949508;28;20046;-60
2022/12/02 08:33:40;;;;;;;56.13;24.40;;;1.80;99.90;;;;;;4950198;28;20295;-60
2022/12/02 08:36:07;;;;;;;59.78;25.35;;;1.70;99.90;;;;;;4946101;28;20073;-60
2022/12/02 08:38:32;;;;;;;60.25;26.10;;;2.00;99.90;;;;;;4950249;28;20039;-60
2022/12/02 08:40:58;;;;;;;59.78;25.27;;;1.80;99.90;;;;;;4949904;28;20035;-60
2022/12/02 08:43:24;;;;;;;60.60;26.90;;;3.00;99.90;;;;;;4947603;28;20042;-59
2022/12/02 08:45:49;;;;;;;62.33;27.08;;;2.40;99.90;;;;;;4949261;28;20052;-60
2022/12/02 08:48:15;;;;;;;69.30;28.58;;;2.60;99.90;;;;;;4949067;28;20392;-60
2022/12/02 08:50:41;;;;;;;66.13;27.80;;;1.80;99.90;;;;;;4948691;28;20225;-58
2022/12/02 08:53:07;;;;;;;67.78;27.80;;;1.70;99.90;;;;;;4949191;28;20126;-59
2022/12/02 08:55:32;;;;;;;68.82;29.05;;;2.00;99.90;;;;;;4949269;28;20538;-61
2022/12/02 08:57:58;;;;;;;63.42;27.48;;;1.80;99.90;;;;;;4948865;28;20047;-59
2022/12/02 09:00:24;;;;;;;57.20;26.92;;;2.00;99.90;;;;;;4949808;28;20081;-60
2022/12/02 09:02:49;;;;;;;58.08;25.58;;;1.70;99.90;;;;;;4949533;28;20185;-60
2022/12/02 09:05:16;;;;;;;56.63;26.45;;;1.70;99.90;;;;;;4950324;28;20623;-60
2022/12/02 09:07:42;;;;;;;64.25;29.77;;;1.90;99.90;;;;;;4952054;28;20656;-60
2022/12/02 09:10:09;;;;;;;59.67;27.48;;;1.90;99.90;;;;;;4950035;28;20067;-59
2022/12/02 09:12:35;;;;;;;59.63;28.08;;;1.80;99.90;;;;;;4951990;28;20047;-60
2022/12/02 09:15:00;;;;;;;69.32;30.17;;;2.00;99.90;;;;;;4953776;28;20050;-58
2022/12/02 09:17:26;;;;;;;59.25;28.05;;;2.80;99.90;;;;;;4952052;28;20051;-60
2022/12/02 09:19:52;;;;;;;65.95;30.55;;;2.60;99.90;;;;;;4953336;28;20066;-60
2022/12/02 09:22:17;;;;;;;65.65;29.98;;;1.90;99.90;;;;;;4953014;28;20078;-60
2022/12/02 09:24:43;;;;;;;58.88;28.75;;;2.00;99.90;;;;;;4953552;28;20091;-59
2022/12/02 09:27:09;;;;;;;63.60;29.85;;;2.10;99.90;;;;;;4952019;28;20047;-60
2022/12/02 09:29:34;;;;;;;63.58;29.50;;;2.00;99.90;;;;;;4953537;28;20050;-60
2022/12/02 09:32:00;;;;;;;62.33;30.08;;;2.10;99.90;;;;;;4953116;28;20050;-60
2022/12/02 09:34:26;;;;;;;65.53;30.67;;;2.10;99.90;;;;;;4952505;28;20047;-60
2022/12/02 09:36:51;;;;;;;62.50;28.80;;;2.00;99.90;;;;;;4951286;28;20051;-60
2022/12/02 09:39:17;;;;;;;66.13;30.10;;;2.00;99.90;;;;;;4952940;28;20043;-60
2022/12/02 09:41:43;;;;;;;70.28;30.42;;;2.00;99.90;;;;;;4953760;28;20117;-59
2022/12/02 09:44:09;;;;;;;67.93;31.15;;;2.20;99.90;;;;;;4950754;28;20042;-59
2022/12/02 09:46:35;;;;;;;62.22;28.77;;;2.10;99.90;;;;;;4952551;28;20070;-59
2022/12/02 09:49:01;;;;;;;63.42;28.55;;;2.70;99.90;;;;;;4952807;28;20046;-59
2022/12/02 09:51:27;;;;;;;59.78;29.23;;;2.80;99.90;;;;;;4952580;28;20061;-60
2022/12/02 09:53:53;;;;;;;64.70;29.83;;;2.20;99.90;;;;;;4951592;28;20113;-60
2022/12/02 09:56:21;;;;;;;61.92;28.27;;;2.60;99.90;;;;;;4953267;28;20043;-59
2022/12/02 09:58:49;;;;;;;65.63;30.30;;;2.20;99.90;;;;;;4952665;28;20504;-59
2022/12/02 10:01:15;;;;;;;64.68;31.00;;;2.10;99.90;;;;;;4952305;28;20047;-59
2022/12/02 10:03:42;;;;;;;64.43;30.38;;;2.20;99.90;;;;;;4951435;28;20046;-60
2022/12/02 10:06:16;;;;;;;69.53;30.35;;;2.30;99.90;;;;;;4951382;28;20656;-60
2022/12/02 10:08:42;;;;;;;64.45;30.02;;;2.00;99.90;;;;;;4951817;28;20058;-60
2022/12/02 10:11:19;;;;;;;65.55;31.10;;;1.90;99.90;;;;;;4951241;28;20055;-60
2022/12/02 10:13:45;;;;;;;60.15;29.67;;;3.60;99.90;;;;;;4951791;28;20117;-60
2022/12/02 10:16:15;;;;;;;56.53;28.45;;;3.80;99.90;;;;;;4950038;28;20229;-59
2022/12/02 10:18:41;;;;;;;58.33;30.73;;;2.10;99.90;;;;;;4950713;28;20055;-60
2022/12/02 10:21:07;;;;;;;65.68;32.28;;;2.10;99.90;;;;;;4941686;28;20058;-60
2022/12/02 10:23:57;;;;;;;63.72;32.28;;;2.40;99.90;;;;;;4950287;28;20039;-61
2022/12/02 10:26:24;;;;;;;59.80;32.03;;;2.00;99.90;;;;;;4951365;28;20101;-60
2022/12/02 10:29:04;;;;;;;60.13;30.05;;;2.40;99.90;;;;;;4951607;28;20062;-59
2022/12/02 10:31:30;;;;;;;61.58;31.67;;;2.10;99.90;;;;;;4951598;28;20047;-60
2022/12/02 10:33:58;;;;;;;61.13;31.50;;;2.40;99.90;;;;;;4951963;28;20098;-59
2022/12/02 10:36:31;;;;;;;63.05;31.70;;;2.00;99.90;;;;;;4949980;28;20327;-60
2022/12/02 10:39:17;;;;;;;60.00;29.65;;;2.00;99.90;;;;;;4951436;28;20055;-59
2022/12/02 10:41:43;;;;;;;56.33;31.67;;;2.30;99.90;;;;;;4951097;28;20075;-60
2022/12/02 10:44:20;;;;;;;54.60;30.42;;;3.10;99.90;;;;;;4950956;28;20050;-60
2022/12/02 10:46:46;;;;;;;60.13;32.13;;;2.10;99.90;;;;;;4951471;28;20387;-60
2022/12/02 10:49:36;;;;;;;62.47;33.50;;;1.90;99.90;;;;;;4951311;28;20046;-59
2022/12/02 10:52:09;;;;;;;59.70;32.00;;;2.10;99.90;;;;;;4950604;28;20043;-59
2022/12/02 10:54:38;;;;;;;59.00;31.63;;;2.20;99.90;;;;;;4949700;28;20412;-59
2022/12/02 10:57:04;;;;;;;55.58;30.70;;;2.10;99.90;;;;;;4949279;28;20410;-61
2022/12/02 10:59:31;;;;;;;59.97;32.70;;;2.90;99.90;;;;;;4949333;28;20121;-60
2022/12/02 11:01:59;;;;;;;53.92;29.52;;;2.50;99.90;;;;;;4951800;28;20466;-59
2022/12/02 11:04:26;;;;;;;55.72;31.42;;;2.10;99.90;;;;;;4950607;28;20264;-59
2022/12/02 11:06:53;;;;;;;59.00;32.72;;;2.20;99.90;;;;;;4949613;28;20090;-65
2022/12/02 11:09:25;;;;;;;56.38;30.90;;;2.80;99.90;;;;;;4948133;28;20098;-60
2022/12/02 11:11:51;;;;;;;58.70;32.47;;;2.00;99.90;;;;;;4949812;28;20129;-60
2022/12/02 11:14:38;;;;;;;56.63;31.95;;;2.20;99.90;;;;;;4950172;28;20039;-60
2022/12/02 11:17:12;;;;;;;52.85;31.15;;;2.20;99.90;;;;;;4950031;28;20043;-60
2022/12/02 11:19:42;;;;;;;55.80;31.50;;;2.20;99.90;;;;;;4951018;28;20047;-60
2022/12/02 11:22:49;;;;;;;53.40;31.85;;;2.20;99.90;;;;;;4949640;28;20055;-60
2022/12/02 11:25:42;;;;;;;53.97;31.40;;;2.30;99.90;;;;;;4944511;28;20086;-61
2022/12/02 11:28:17;;;;;;;53.10;31.50;;;2.20;99.90;;;;;;4950887;28;20556;-61
2022/12/02 11:30:43;;;;;;;56.90;30.73;;;3.70;99.90;;;;;;4950218;28;20114;-60
2022/12/02 11:33:11;;;;;;;54.00;33.35;;;2.10;99.90;;;;;;4950848;28;20054;-60
2022/12/02 11:36:07;;;;;;;55.35;32.70;;;2.30;99.90;;;;;;4950063;28;20049;-60
2022/12/02 11:38:46;;;;;;;54.22;31.10;;;2.10;99.90;;;;;;4950835;28;20559;-61
2022/12/02 11:41:13;;;;;;;51.45;31.90;;;2.30;99.90;;;;;;4957428;28;21019;-60
2022/12/02 11:43:45;;;;;;;49.95;31.17;;;2.60;99.90;;;;;;4947774;28;20042;-60
2022/12/02 11:46:14;;;;;;;51.85;33.08;;;3.20;99.90;;;;;;4950181;28;20047;-60
2022/12/02 11:48:54;;;;;;;53.63;32.92;;;2.10;99.90;;;;;;4950812;28;20178;-60
2022/12/02 11:51:40;;;;;;;53.42;31.77;;;2.30;99.90;;;;;;4949424;28;20062;-60
2022/12/02 11:54:13;;;;;;;52.20;31.05;;;2.60;99.90;;;;;;4949590;28;20047;-60
2022/12/02 11:56:39;;;;;;;56.92;34.40;;;2.20;99.90;;;;;;4949860;28;20060;-60
2022/12/02 11:59:25;;;;;;;58.08;34.60;;;2.20;99.90;;;;;;4949514;28;20106;-60
2022/12/02 12:02:16;;;;;;;58.72;34.40;;;2.10;99.90;;;;;;4949759;28;20051;-60
2022/12/02 12:04:42;;;;;;;54.05;30.23;;;2.40;99.90;;;;;;4949921;28;20082;-60
2022/12/02 12:07:08;;;;;;;55.30;33.90;;;2.30;99.90;;;;;;4950038;28;20042;-61
2022/12/02 12:09:34;;;;;;;54.25;34.28;;;2.20;99.90;;;;;;4948243;28;20078;-62
2022/12/02 12:12:10;;;;;;;56.20;34.20;;;2.10;99.90;;;;;;4950179;28;20043;-62
2022/12/02 12:14:56;;;;;;;56.78;34.20;;;2.10;99.90;;;;;;4950001;28;20043;-60
2022/12/02 12:17:40;;;;;;;53.85;31.55;;;2.30;99.90;;;;;;4950314;28;20039;-59
2022/12/02 12:20:26;;;;;;;54.47;33.05;;;2.30;99.90;;;;;;4947856;28;20795;-59
2022/12/02 12:22:51;;;;;;;53.78;31.42;;;2.20;99.90;;;;;;4945852;28;20130;-60
2022/12/02 12:25:39;;;;;;;54.42;31.73;;;2.10;99.90;;;;;;4950634;28;20051;-60
2022/12/02 12:28:25;;;;;;;58.40;35.47;;;2.10;99.90;;;;;;4950015;28;20121;-60
2022/12/02 12:30:51;;;;;;;55.67;32.35;;;2.30;99.90;;;;;;4949148;28;20078;-60
2022/12/02 12:33:17;;;;;;;49.90;32.05;;;2.30;99.90;;;;;;4949847;28;20377;-60
2022/12/02 12:35:42;;;;;;;53.00;32.50;;;2.20;99.90;;;;;;4949127;28;20209;-60
2022/12/02 12:38:08;;;;;;;54.70;33.60;;;2.20;99.90;;;;;;4951844;28;20043;-61
2022/12/02 12:40:34;;;;;;;53.28;31.88;;;2.30;99.90;;;;;;4952802;28;20081;-60
2022/12/02 12:43:00;;;;;;;53.15;31.20;;;2.30;99.90;;;;;;4954035;28;20411;-60
2022/12/02 12:45:25;;;;;;;51.33;30.88;;;2.20;99.90;;;;;;4953276;28;20510;-60